sensor_id;sensor_type;location;lat;lon;timestamp;P1;durP1;ratioP1;P2;durP2;ratioP2
69172;SDS011;56280;49.662;8.408;2023-03-03T00:01:03;23.00;;;20.77;;
69172;SDS011;56280;49.662;8.408;2023-03-03T00:03:30;24.02;;;21.70;;
69172;SDS011;56280;49.662;8.408;2023-03-03T00:05:55;21.92;;;20.00;;
69172;SDS011;56280;49.662;8.408;2023-03-03T00:08:21;24.58;;;22.20;;
69172;SDS011;56280;49.662;8.408;2023-03-03T00:10:47;23.57;;;21.47;;
69172;SDS011;56280;49.662;8.408;2023-03-03T00:13:17;24.17;;;22.00;;
69172;SDS011;56280;49.662;8.408;2023-03-03T00:15:48;22.88;;;20.83;;
69172;SDS011;56280;49.662;8.408;2023-03-03T00:20:55;22.30;;;20.15;;
69172;SDS011;56280;49.662;8.408;2023-03-03T00:23:25;25.60;;;23.30;;
69172;SDS011;56280;49.662;8.408;2023-03-03T00:25:56;23.70;;;21.45;;
69172;SDS011;56280;49.662;8.408;2023-03-03T00:28:27;23.50;;;21.30;;
69172;SDS011;56280;49.662;8.408;2023-03-03T00:31:00;22.97;;;20.67;;
69172;SDS011;56280;49.662;8.408;2023-03-03T00:33:31;23.77;;;21.50;;
69172;SDS011;56280;49.662;8.408;2023-03-03T00:36:21;23.08;;;20.92;;
69172;SDS011;56280;49.662;8.408;2023-03-03T00:41:50;25.67;;;23.30;;
69172;SDS011;56280;49.662;8.408;2023-03-03T00:44:30;24.57;;;22.37;;
69172;SDS011;56280;49.662;8.408;2023-03-03T00:50:27;24.35;;;21.98;;
69172;SDS011;56280;49.662;8.408;2023-03-03T00:53:02;24.45;;;22.10;;
69172;SDS011;56280;49.662;8.408;2023-03-03T00:55:27;24.83;;;22.58;;
69172;SDS011;56280;49.662;8.408;2023-03-03T00:57:53;25.50;;;23.20;;
69172;SDS011;56280;49.662;8.408;2023-03-03T01:00:18;24.53;;;22.17;;
69172;SDS011;56280;49.662;8.408;2023-03-03T01:02:44;23.40;;;20.80;;
69172;SDS011;56280;49.662;8.408;2023-03-03T01:05:11;20.75;;;18.55;;
69172;SDS011;56280;49.662;8.408;2023-03-03T01:07:37;19.95;;;17.95;;
69172;SDS011;56280;49.662;8.408;2023-03-03T01:10:02;20.53;;;18.50;;
69172;SDS011;56280;49.662;8.408;2023-03-03T01:12:28;21.80;;;19.20;;
69172;SDS011;56280;49.662;8.408;2023-03-03T01:14:53;23.70;;;21.37;;
69172;SDS011;56280;49.662;8.408;2023-03-03T01:17:19;24.63;;;22.23;;
69172;SDS011;56280;49.662;8.408;2023-03-03T01:19:44;23.33;;;21.02;;
69172;SDS011;56280;49.662;8.408;2023-03-03T01:22:10;24.52;;;22.02;;
69172;SDS011;56280;49.662;8.408;2023-03-03T01:24:35;26.38;;;23.85;;
69172;SDS011;56280;49.662;8.408;2023-03-03T01:27:00;25.83;;;23.33;;
69172;SDS011;56280;49.662;8.408;2023-03-03T01:29:25;25.10;;;22.53;;
69172;SDS011;56280;49.662;8.408;2023-03-03T01:31:51;26.53;;;24.03;;
69172;SDS011;56280;49.662;8.408;2023-03-03T01:34:16;24.63;;;22.20;;
69172;SDS011;56280;49.662;8.408;2023-03-03T01:36:41;26.93;;;24.43;;
69172;SDS011;56280;49.662;8.408;2023-03-03T01:39:06;29.07;;;26.27;;
69172;SDS011;56280;49.662;8.408;2023-03-03T01:41:32;26.80;;;24.20;;
69172;SDS011;56280;49.662;8.408;2023-03-03T01:43:57;26.67;;;23.93;;
69172;SDS011;56280;49.662;8.408;2023-03-03T01:46:28;28.60;;;25.95;;
69172;SDS011;56280;49.662;8.408;2023-03-03T01:49:00;28.83;;;26.02;;
69172;SDS011;56280;49.662;8.408;2023-03-03T01:51:32;30.08;;;27.38;;
69172;SDS011;56280;49.662;8.408;2023-03-03T01:54:03;29.07;;;26.37;;
69172;SDS011;56280;49.662;8.408;2023-03-03T01:56:35;29.08;;;26.25;;
69172;SDS011;56280;49.662;8.408;2023-03-03T01:59:09;29.03;;;26.20;;
69172;SDS011;56280;49.662;8.408;2023-03-03T02:01:39;29.05;;;26.25;;
69172;SDS011;56280;49.662;8.408;2023-03-03T02:04:05;26.23;;;23.73;;
69172;SDS011;56280;49.662;8.408;2023-03-03T02:06:37;27.17;;;24.50;;
69172;SDS011;56280;49.662;8.408;2023-03-03T02:09:21;29.17;;;26.42;;
69172;SDS011;56280;49.662;8.408;2023-03-03T02:11:54;27.10;;;24.27;;
69172;SDS011;56280;49.662;8.408;2023-03-03T02:14:23;27.80;;;24.98;;
69172;SDS011;56280;49.662;8.408;2023-03-03T02:16:49;27.17;;;24.38;;
69172;SDS011;56280;49.662;8.408;2023-03-03T02:19:17;26.30;;;23.33;;
69172;SDS011;56280;49.662;8.408;2023-03-03T02:22:00;28.35;;;24.58;;
69172;SDS011;56280;49.662;8.408;2023-03-03T02:24:46;27.58;;;24.73;;
69172;SDS011;56280;49.662;8.408;2023-03-03T02:27:15;29.05;;;26.15;;
69172;SDS011;56280;49.662;8.408;2023-03-03T02:29:40;28.53;;;25.50;;
69172;SDS011;56280;49.662;8.408;2023-03-03T02:32:06;30.57;;;27.47;;
69172;SDS011;56280;49.662;8.408;2023-03-03T02:34:42;30.10;;;27.20;;
69172;SDS011;56280;49.662;8.408;2023-03-03T02:37:09;29.52;;;26.55;;
69172;SDS011;56280;49.662;8.408;2023-03-03T02:39:34;27.57;;;24.80;;
69172;SDS011;56280;49.662;8.408;2023-03-03T02:42:14;27.17;;;24.38;;
69172;SDS011;56280;49.662;8.408;2023-03-03T02:44:53;28.27;;;25.50;;
69172;SDS011;56280;49.662;8.408;2023-03-03T02:47:19;29.98;;;27.00;;
69172;SDS011;56280;49.662;8.408;2023-03-03T02:49:44;29.70;;;26.90;;
69172;SDS011;56280;49.662;8.408;2023-03-03T02:52:10;29.40;;;26.63;;
69172;SDS011;56280;49.662;8.408;2023-03-03T02:54:36;29.80;;;26.80;;
69172;SDS011;56280;49.662;8.408;2023-03-03T02:57:02;27.30;;;24.40;;
69172;SDS011;56280;49.662;8.408;2023-03-03T02:59:28;28.67;;;25.73;;
69172;SDS011;56280;49.662;8.408;2023-03-03T03:01:54;31.70;;;28.60;;
69172;SDS011;56280;49.662;8.408;2023-03-03T03:04:26;30.90;;;27.60;;
69172;SDS011;56280;49.662;8.408;2023-03-03T03:06:51;30.00;;;26.90;;
69172;SDS011;56280;49.662;8.408;2023-03-03T03:09:18;30.88;;;27.67;;
69172;SDS011;56280;49.662;8.408;2023-03-03T03:11:45;32.83;;;29.38;;
69172;SDS011;56280;49.662;8.408;2023-03-03T03:14:12;33.90;;;30.37;;
69172;SDS011;56280;49.662;8.408;2023-03-03T03:16:38;33.70;;;30.10;;
69172;SDS011;56280;49.662;8.408;2023-03-03T03:19:04;33.10;;;29.60;;
69172;SDS011;56280;49.662;8.408;2023-03-03T03:21:30;31.93;;;28.10;;
69172;SDS011;56280;49.662;8.408;2023-03-03T03:23:56;33.38;;;29.17;;
69172;SDS011;56280;49.662;8.408;2023-03-03T03:26:22;32.63;;;28.17;;
69172;SDS011;56280;49.662;8.408;2023-03-03T03:28:48;33.10;;;29.57;;
69172;SDS011;56280;49.662;8.408;2023-03-03T03:31:14;33.17;;;28.45;;
69172;SDS011;56280;49.662;8.408;2023-03-03T03:33:40;33.10;;;28.43;;
69172;SDS011;56280;49.662;8.408;2023-03-03T03:36:05;34.00;;;30.03;;
69172;SDS011;56280;49.662;8.408;2023-03-03T03:38:31;35.70;;;28.25;;
69172;SDS011;56280;49.662;8.408;2023-03-03T03:40:57;32.80;;;29.00;;
69172;SDS011;56280;49.662;8.408;2023-03-03T03:43:23;35.33;;;28.47;;
69172;SDS011;56280;49.662;8.408;2023-03-03T03:45:49;33.15;;;27.92;;
69172;SDS011;56280;49.662;8.408;2023-03-03T03:48:14;35.10;;;29.20;;
69172;SDS011;56280;49.662;8.408;2023-03-03T03:50:40;35.43;;;29.90;;
69172;SDS011;56280;49.662;8.408;2023-03-03T03:53:06;35.30;;;30.58;;
69172;SDS011;56280;49.662;8.408;2023-03-03T03:55:32;34.83;;;30.20;;
69172;SDS011;56280;49.662;8.408;2023-03-03T03:57:57;34.83;;;29.70;;
69172;SDS011;56280;49.662;8.408;2023-03-03T04:00:23;34.83;;;28.27;;
69172;SDS011;56280;49.662;8.408;2023-03-03T04:02:49;36.22;;;28.92;;
69172;SDS011;56280;49.662;8.408;2023-03-03T04:05:14;32.90;;;28.33;;
69172;SDS011;56280;49.662;8.408;2023-03-03T04:07:40;35.67;;;29.37;;
69172;SDS011;56280;49.662;8.408;2023-03-03T04:10:05;33.57;;;29.07;;
69172;SDS011;56280;49.662;8.408;2023-03-03T04:12:31;35.97;;;29.60;;
69172;SDS011;56280;49.662;8.408;2023-03-03T04:17:32;37.67;;;30.45;;
69172;SDS011;56280;49.662;8.408;2023-03-03T04:19:57;36.60;;;31.17;;
69172;SDS011;56280;49.662;8.408;2023-03-03T04:22:22;38.78;;;30.63;;
69172;SDS011;56280;49.662;8.408;2023-03-03T04:24:47;38.55;;;30.33;;
69172;SDS011;56280;49.662;8.408;2023-03-03T04:27:13;40.07;;;32.67;;
69172;SDS011;56280;49.662;8.408;2023-03-03T04:29:39;39.63;;;32.87;;
69172;SDS011;56280;49.662;8.408;2023-03-03T04:32:05;40.85;;;33.25;;
69172;SDS011;56280;49.662;8.408;2023-03-03T04:34:32;40.72;;;32.17;;
69172;SDS011;56280;49.662;8.408;2023-03-03T04:36:58;42.77;;;33.37;;
69172;SDS011;56280;49.662;8.408;2023-03-03T04:39:23;43.23;;;31.57;;
69172;SDS011;56280;49.662;8.408;2023-03-03T04:41:49;42.70;;;32.77;;
69172;SDS011;56280;49.662;8.408;2023-03-03T04:44:14;44.30;;;33.17;;
69172;SDS011;56280;49.662;8.408;2023-03-03T04:46:40;44.17;;;33.00;;
69172;SDS011;56280;49.662;8.408;2023-03-03T04:49:05;44.53;;;34.38;;
69172;SDS011;56280;49.662;8.408;2023-03-03T04:51:32;44.83;;;34.08;;
69172;SDS011;56280;49.662;8.408;2023-03-03T04:53:58;43.88;;;31.58;;
69172;SDS011;56280;49.662;8.408;2023-03-03T04:56:23;45.83;;;34.58;;
69172;SDS011;56280;49.662;8.408;2023-03-03T04:58:48;44.47;;;35.43;;
69172;SDS011;56280;49.662;8.408;2023-03-03T05:01:14;43.83;;;33.37;;
69172;SDS011;56280;49.662;8.408;2023-03-03T05:03:39;44.30;;;35.07;;
69172;SDS011;56280;49.662;8.408;2023-03-03T05:06:05;46.65;;;36.22;;
69172;SDS011;56280;49.662;8.408;2023-03-03T05:08:31;45.43;;;35.67;;
69172;SDS011;56280;49.662;8.408;2023-03-03T05:10:56;45.30;;;35.95;;
69172;SDS011;56280;49.662;8.408;2023-03-03T05:13:23;46.17;;;35.90;;
69172;SDS011;56280;49.662;8.408;2023-03-03T05:15:50;49.17;;;37.15;;
69172;SDS011;56280;49.662;8.408;2023-03-03T05:18:17;48.43;;;34.47;;
69172;SDS011;56280;49.662;8.408;2023-03-03T05:20:43;51.25;;;36.50;;
69172;SDS011;56280;49.662;8.408;2023-03-03T05:23:08;52.90;;;37.47;;
69172;SDS011;56280;49.662;8.408;2023-03-03T05:25:33;51.03;;;36.07;;
69172;SDS011;56280;49.662;8.408;2023-03-03T05:27:59;52.47;;;37.07;;
69172;SDS011;56280;49.662;8.408;2023-03-03T05:30:24;54.60;;;40.23;;
69172;SDS011;56280;49.662;8.408;2023-03-03T05:32:49;53.23;;;38.57;;
69172;SDS011;56280;49.662;8.408;2023-03-03T05:35:15;53.67;;;38.80;;
69172;SDS011;56280;49.662;8.408;2023-03-03T05:37:41;52.57;;;38.17;;
69172;SDS011;56280;49.662;8.408;2023-03-03T05:40:11;54.22;;;39.92;;
69172;SDS011;56280;49.662;8.408;2023-03-03T05:42:37;53.55;;;40.92;;
69172;SDS011;56280;49.662;8.408;2023-03-03T05:45:03;54.30;;;38.73;;
69172;SDS011;56280;49.662;8.408;2023-03-03T05:47:28;54.50;;;38.50;;
69172;SDS011;56280;49.662;8.408;2023-03-03T05:49:54;56.93;;;38.33;;
69172;SDS011;56280;49.662;8.408;2023-03-03T05:52:19;56.57;;;41.97;;
69172;SDS011;56280;49.662;8.408;2023-03-03T05:54:44;54.90;;;39.37;;
69172;SDS011;56280;49.662;8.408;2023-03-03T05:57:10;54.77;;;39.10;;
69172;SDS011;56280;49.662;8.408;2023-03-03T05:59:35;54.53;;;37.88;;
69172;SDS011;56280;49.662;8.408;2023-03-03T06:02:01;56.88;;;40.45;;
69172;SDS011;56280;49.662;8.408;2023-03-03T06:04:26;58.78;;;40.45;;
69172;SDS011;56280;49.662;8.408;2023-03-03T06:06:52;58.17;;;41.43;;
69172;SDS011;56280;49.662;8.408;2023-03-03T06:09:17;57.43;;;39.37;;
69172;SDS011;56280;49.662;8.408;2023-03-03T06:11:43;56.37;;;38.47;;
69172;SDS011;56280;49.662;8.408;2023-03-03T06:14:08;58.17;;;41.67;;
69172;SDS011;56280;49.662;8.408;2023-03-03T06:16:33;60.23;;;42.30;;
69172;SDS011;56280;49.662;8.408;2023-03-03T06:18:59;60.10;;;42.03;;
69172;SDS011;56280;49.662;8.408;2023-03-03T06:21:25;62.10;;;42.60;;
69172;SDS011;56280;49.662;8.408;2023-03-03T06:23:50;65.67;;;42.90;;
69172;SDS011;56280;49.662;8.408;2023-03-03T06:26:15;63.87;;;42.53;;
69172;SDS011;56280;49.662;8.408;2023-03-03T06:28:41;67.30;;;42.20;;
69172;SDS011;56280;49.662;8.408;2023-03-03T06:31:06;74.13;;;45.53;;
69172;SDS011;56280;49.662;8.408;2023-03-03T06:33:31;69.27;;;43.23;;
69172;SDS011;56280;49.662;8.408;2023-03-03T06:35:57;70.17;;;44.13;;
69172;SDS011;56280;49.662;8.408;2023-03-03T06:38:22;67.87;;;45.10;;
69172;SDS011;56280;49.662;8.408;2023-03-03T06:40:48;68.83;;;42.83;;
69172;SDS011;56280;49.662;8.408;2023-03-03T06:43:13;68.13;;;44.33;;
69172;SDS011;56280;49.662;8.408;2023-03-03T06:45:39;67.77;;;45.33;;
69172;SDS011;56280;49.662;8.408;2023-03-03T06:48:04;67.50;;;43.37;;
69172;SDS011;56280;49.662;8.408;2023-03-03T06:50:30;67.95;;;42.78;;
69172;SDS011;56280;49.662;8.408;2023-03-03T06:53:00;66.50;;;45.35;;
69172;SDS011;56280;49.662;8.408;2023-03-03T06:55:34;66.55;;;43.20;;
69172;SDS011;56280;49.662;8.408;2023-03-03T06:57:59;67.70;;;42.50;;
69172;SDS011;56280;49.662;8.408;2023-03-03T07:00:26;65.73;;;42.97;;
69172;SDS011;56280;49.662;8.408;2023-03-03T07:02:59;68.07;;;44.85;;
69172;SDS011;56280;49.662;8.408;2023-03-03T07:05:27;69.60;;;45.35;;
69172;SDS011;56280;49.662;8.408;2023-03-03T07:07:54;69.10;;;43.72;;
69172;SDS011;56280;49.662;8.408;2023-03-03T07:10:22;68.53;;;45.10;;
69172;SDS011;56280;49.662;8.408;2023-03-03T07:12:50;66.45;;;43.67;;
69172;SDS011;56280;49.662;8.408;2023-03-03T07:15:20;66.00;;;43.60;;
69172;SDS011;56280;49.662;8.408;2023-03-03T07:17:49;66.15;;;44.05;;
69172;SDS011;56280;49.662;8.408;2023-03-03T07:20:18;69.53;;;45.23;;
69172;SDS011;56280;49.662;8.408;2023-03-03T07:22:45;70.30;;;44.63;;
69172;SDS011;56280;49.662;8.408;2023-03-03T07:25:30;69.35;;;45.47;;
69172;SDS011;56280;49.662;8.408;2023-03-03T07:28:19;70.55;;;45.05;;
69172;SDS011;56280;49.662;8.408;2023-03-03T07:30:48;69.13;;;43.42;;
69172;SDS011;56280;49.662;8.408;2023-03-03T07:33:35;70.53;;;45.00;;
69172;SDS011;56280;49.662;8.408;2023-03-03T07:36:02;70.55;;;45.67;;
69172;SDS011;56280;49.662;8.408;2023-03-03T07:38:41;70.00;;;44.70;;
69172;SDS011;56280;49.662;8.408;2023-03-03T07:41:19;70.68;;;44.13;;
69172;SDS011;56280;49.662;8.408;2023-03-03T07:43:52;66.57;;;42.35;;
69172;SDS011;56280;49.662;8.408;2023-03-03T07:48:49;72.80;;;47.17;;
69172;SDS011;56280;49.662;8.408;2023-03-03T07:51:26;73.63;;;46.50;;
69172;SDS011;56280;49.662;8.408;2023-03-03T07:53:55;74.40;;;48.15;;
69172;SDS011;56280;49.662;8.408;2023-03-03T07:56:37;73.87;;;47.07;;
69172;SDS011;56280;49.662;8.408;2023-03-03T07:59:12;68.90;;;46.17;;
69172;SDS011;56280;49.662;8.408;2023-03-03T08:01:52;72.07;;;46.50;;
69172;SDS011;56280;49.662;8.408;2023-03-03T08:04:21;73.70;;;47.65;;
69172;SDS011;56280;49.662;8.408;2023-03-03T08:06:56;71.78;;;45.38;;
69172;SDS011;56280;49.662;8.408;2023-03-03T08:14:36;74.05;;;46.72;;
69172;SDS011;56280;49.662;8.408;2023-03-03T08:17:13;70.13;;;45.35;;
69172;SDS011;56280;49.662;8.408;2023-03-03T08:19:45;71.40;;;45.92;;
69172;SDS011;56280;49.662;8.408;2023-03-03T08:22:12;72.05;;;45.55;;
69172;SDS011;56280;49.662;8.408;2023-03-03T08:24:41;72.13;;;48.15;;
69172;SDS011;56280;49.662;8.408;2023-03-03T08:27:06;72.47;;;46.40;;
69172;SDS011;56280;49.662;8.408;2023-03-03T08:29:32;77.57;;;49.30;;
69172;SDS011;56280;49.662;8.408;2023-03-03T08:31:57;74.83;;;48.07;;
69172;SDS011;56280;49.662;8.408;2023-03-03T08:34:22;68.63;;;47.17;;
69172;SDS011;56280;49.662;8.408;2023-03-03T08:36:48;72.97;;;46.10;;
69172;SDS011;56280;49.662;8.408;2023-03-03T08:39:13;69.97;;;45.07;;
69172;SDS011;56280;49.662;8.408;2023-03-03T08:41:39;70.93;;;45.47;;
69172;SDS011;56280;49.662;8.408;2023-03-03T08:44:07;70.88;;;45.75;;
69172;SDS011;56280;49.662;8.408;2023-03-03T08:46:33;68.93;;;46.30;;
69172;SDS011;56280;49.662;8.408;2023-03-03T08:48:58;73.37;;;47.77;;
69172;SDS011;56280;49.662;8.408;2023-03-03T08:51:23;68.87;;;46.10;;
69172;SDS011;56280;49.662;8.408;2023-03-03T08:53:50;72.38;;;45.88;;
69172;SDS011;56280;49.662;8.408;2023-03-03T08:56:15;75.30;;;46.47;;
69172;SDS011;56280;49.662;8.408;2023-03-03T08:58:41;71.07;;;45.80;;
69172;SDS011;56280;49.662;8.408;2023-03-03T09:01:12;72.68;;;46.20;;
69172;SDS011;56280;49.662;8.408;2023-03-03T09:03:40;72.68;;;46.78;;
69172;SDS011;56280;49.662;8.408;2023-03-03T09:06:05;72.03;;;46.60;;
69172;SDS011;56280;49.662;8.408;2023-03-03T09:08:31;73.00;;;46.17;;
69172;SDS011;56280;49.662;8.408;2023-03-03T09:10:58;74.50;;;47.97;;
69172;SDS011;56280;49.662;8.408;2023-03-03T09:13:24;74.10;;;47.03;;
69172;SDS011;56280;49.662;8.408;2023-03-03T09:15:49;74.30;;;46.93;;
69172;SDS011;56280;49.662;8.408;2023-03-03T09:18:16;74.33;;;47.40;;
69172;SDS011;56280;49.662;8.408;2023-03-03T09:20:52;72.15;;;45.78;;
69172;SDS011;56280;49.662;8.408;2023-03-03T09:25:49;71.17;;;45.60;;
69172;SDS011;56280;49.662;8.408;2023-03-03T09:28:26;72.07;;;49.80;;
69172;SDS011;56280;49.662;8.408;2023-03-03T09:30:55;67.90;;;45.17;;
69172;SDS011;56280;49.662;8.408;2023-03-03T09:33:42;73.65;;;47.92;;
69172;SDS011;56280;49.662;8.408;2023-03-03T09:38:54;70.70;;;47.70;;
69172;SDS011;56280;49.662;8.408;2023-03-03T09:41:41;70.70;;;46.53;;
69172;SDS011;56280;49.662;8.408;2023-03-03T09:50:18;66.82;;;46.70;;
69172;SDS011;56280;49.662;8.408;2023-03-03T09:52:57;68.28;;;47.83;;
69172;SDS011;56280;49.662;8.408;2023-03-03T09:55:53;69.20;;;46.40;;
69172;SDS011;56280;49.662;8.408;2023-03-03T10:01:31;68.60;;;47.75;;
69172;SDS011;56280;49.662;8.408;2023-03-03T10:12:19;66.97;;;48.50;;
69172;SDS011;56280;49.662;8.408;2023-03-03T10:15:02;65.75;;;47.20;;
69172;SDS011;56280;49.662;8.408;2023-03-03T10:20:29;66.07;;;49.90;;
69172;SDS011;56280;49.662;8.408;2023-03-03T10:26:20;61.92;;;47.00;;
69172;SDS011;56280;49.662;8.408;2023-03-03T10:37:27;64.73;;;45.87;;
69172;SDS011;56280;49.662;8.408;2023-03-03T10:40:07;62.95;;;46.58;;
69172;SDS011;56280;49.662;8.408;2023-03-03T11:05:21;56.05;;;42.40;;
69172;SDS011;56280;49.662;8.408;2023-03-03T11:13:49;57.60;;;42.77;;
69172;SDS011;56280;49.662;8.408;2023-03-03T11:18:56;56.67;;;43.77;;
69172;SDS011;56280;49.662;8.408;2023-03-03T11:21:28;56.65;;;42.40;;
69172;SDS011;56280;49.662;8.408;2023-03-03T11:24:17;56.17;;;43.83;;
69172;SDS011;56280;49.662;8.408;2023-03-03T11:32:32;57.27;;;44.97;;
69172;SDS011;56280;49.662;8.408;2023-03-03T11:35:19;56.47;;;41.25;;
69172;SDS011;56280;49.662;8.408;2023-03-03T11:37:58;56.95;;;41.20;;
69172;SDS011;56280;49.662;8.408;2023-03-03T11:43:11;53.25;;;42.47;;
69172;SDS011;56280;49.662;8.408;2023-03-03T11:45:42;55.47;;;44.42;;
69172;SDS011;56280;49.662;8.408;2023-03-03T11:53:54;53.05;;;41.65;;
69172;SDS011;56280;49.662;8.408;2023-03-03T11:56:22;55.88;;;42.55;;
69172;SDS011;56280;49.662;8.408;2023-03-03T12:01:56;54.53;;;41.72;;
69172;SDS011;56280;49.662;8.408;2023-03-03T12:04:31;52.80;;;45.20;;
69172;SDS011;56280;49.662;8.408;2023-03-03T12:07:20;50.75;;;41.25;;
69172;SDS011;56280;49.662;8.408;2023-03-03T12:10:01;53.22;;;45.50;;
69172;SDS011;56280;49.662;8.408;2023-03-03T12:29:18;52.20;;;41.78;;
69172;SDS011;56280;49.662;8.408;2023-03-03T12:32:34;46.80;;;39.60;;
69172;SDS011;56280;49.662;8.408;2023-03-03T12:35:18;51.92;;;41.95;;
69172;SDS011;56280;49.662;8.408;2023-03-03T12:49:20;44.35;;;37.88;;
69172;SDS011;56280;49.662;8.408;2023-03-03T12:54:41;45.38;;;40.08;;
69172;SDS011;56280;49.662;8.408;2023-03-03T13:05:15;43.90;;;38.95;;
69172;SDS011;56280;49.662;8.408;2023-03-03T13:10:40;43.78;;;39.08;;
69172;SDS011;56280;49.662;8.408;2023-03-03T13:13:16;42.95;;;38.25;;
69172;SDS011;56280;49.662;8.408;2023-03-03T13:16:00;43.20;;;37.45;;
69172;SDS011;56280;49.662;8.408;2023-03-03T13:24:01;42.77;;;37.00;;
69172;SDS011;56280;49.662;8.408;2023-03-03T13:26:42;45.90;;;38.45;;
69172;SDS011;56280;49.662;8.408;2023-03-03T13:31:59;39.75;;;35.38;;
69172;SDS011;56280;49.662;8.408;2023-03-03T13:34:33;40.53;;;34.20;;
69172;SDS011;56280;49.662;8.408;2023-03-03T13:37:11;40.75;;;35.17;;
69172;SDS011;56280;49.662;8.408;2023-03-03T13:40:08;42.47;;;37.97;;
69172;SDS011;56280;49.662;8.408;2023-03-03T13:42:43;40.08;;;35.78;;
69172;SDS011;56280;49.662;8.408;2023-03-03T13:45:47;40.67;;;35.22;;
69172;SDS011;56280;49.662;8.408;2023-03-03T13:51:20;41.65;;;37.25;;
69172;SDS011;56280;49.662;8.408;2023-03-03T13:54:05;41.90;;;37.40;;
69172;SDS011;56280;49.662;8.408;2023-03-03T14:04:53;37.20;;;33.08;;
69172;SDS011;56280;49.662;8.408;2023-03-03T14:07:43;36.47;;;32.58;;
69172;SDS011;56280;49.662;8.408;2023-03-03T14:10:32;36.35;;;32.30;;
69172;SDS011;56280;49.662;8.408;2023-03-03T14:15:47;35.03;;;31.23;;
69172;SDS011;56280;49.662;8.408;2023-03-03T14:18:29;38.20;;;34.22;;
69172;SDS011;56280;49.662;8.408;2023-03-03T14:21:18;35.15;;;31.30;;
69172;SDS011;56280;49.662;8.408;2023-03-03T14:23:50;38.08;;;34.08;;
69172;SDS011;56280;49.662;8.408;2023-03-03T14:26:28;36.80;;;32.90;;
69172;SDS011;56280;49.662;8.408;2023-03-03T14:29:03;33.10;;;29.53;;
69172;SDS011;56280;49.662;8.408;2023-03-03T14:31:41;33.20;;;29.73;;
69172;SDS011;56280;49.662;8.408;2023-03-03T14:36:37;34.78;;;31.05;;
69172;SDS011;56280;49.662;8.408;2023-03-03T14:41:57;35.15;;;31.55;;
69172;SDS011;56280;49.662;8.408;2023-03-03T14:44:30;34.45;;;30.65;;
69172;SDS011;56280;49.662;8.408;2023-03-03T14:47:11;32.35;;;28.35;;
69172;SDS011;56280;49.662;8.408;2023-03-03T14:49:43;30.45;;;27.23;;
69172;SDS011;56280;49.662;8.408;2023-03-03T14:54:46;32.28;;;28.88;;
69172;SDS011;56280;49.662;8.408;2023-03-03T14:57:16;32.25;;;28.63;;
69172;SDS011;56280;49.662;8.408;2023-03-03T14:59:56;32.47;;;29.00;;
69172;SDS011;56280;49.662;8.408;2023-03-03T15:02:28;29.88;;;26.67;;
69172;SDS011;56280;49.662;8.408;2023-03-03T15:07:51;28.73;;;25.40;;
69172;SDS011;56280;49.662;8.408;2023-03-03T15:10:30;35.08;;;28.25;;
69172;SDS011;56280;49.662;8.408;2023-03-03T15:12:58;29.90;;;26.03;;
69172;SDS011;56280;49.662;8.408;2023-03-03T15:15:34;29.37;;;26.27;;
69172;SDS011;56280;49.662;8.408;2023-03-03T15:18:08;32.25;;;28.90;;
69172;SDS011;56280;49.662;8.408;2023-03-03T15:31:23;30.00;;;27.00;;
69172;SDS011;56280;49.662;8.408;2023-03-03T15:34:18;30.50;;;27.35;;
69172;SDS011;56280;49.662;8.408;2023-03-03T15:39:40;28.80;;;25.80;;
69172;SDS011;56280;49.662;8.408;2023-03-03T15:44:55;31.13;;;28.03;;
69172;SDS011;56280;49.662;8.408;2023-03-03T15:52:47;28.52;;;25.42;;
69172;SDS011;56280;49.662;8.408;2023-03-03T15:55:27;29.50;;;26.23;;
69172;SDS011;56280;49.662;8.408;2023-03-03T16:00:47;30.98;;;27.98;;
69172;SDS011;56280;49.662;8.408;2023-03-03T16:03:39;31.27;;;28.08;;
69172;SDS011;56280;49.662;8.408;2023-03-03T16:06:15;30.45;;;27.27;;
69172;SDS011;56280;49.662;8.408;2023-03-03T16:11:22;31.75;;;28.60;;
69172;SDS011;56280;49.662;8.408;2023-03-03T16:14:03;32.25;;;28.40;;
69172;SDS011;56280;49.662;8.408;2023-03-03T16:16:50;31.80;;;28.45;;
69172;SDS011;56280;49.662;8.408;2023-03-03T16:19:34;29.58;;;26.40;;
69172;SDS011;56280;49.662;8.408;2023-03-03T16:22:33;34.13;;;30.73;;
69172;SDS011;56280;49.662;8.408;2023-03-03T16:30:32;34.42;;;31.05;;
69172;SDS011;56280;49.662;8.408;2023-03-03T16:35:59;33.05;;;29.65;;
69172;SDS011;56280;49.662;8.408;2023-03-03T16:38:38;32.58;;;29.13;;
69172;SDS011;56280;49.662;8.408;2023-03-03T16:41:33;34.28;;;30.70;;
69172;SDS011;56280;49.662;8.408;2023-03-03T16:44:21;34.45;;;30.88;;
69172;SDS011;56280;49.662;8.408;2023-03-03T16:47:01;32.70;;;29.17;;
69172;SDS011;56280;49.662;8.408;2023-03-03T16:49:39;37.17;;;32.90;;
69172;SDS011;56280;49.662;8.408;2023-03-03T16:52:40;42.50;;;34.20;;
69172;SDS011;56280;49.662;8.408;2023-03-03T16:55:29;46.33;;;38.97;;
69172;SDS011;56280;49.662;8.408;2023-03-03T17:01:00;50.57;;;41.47;;
69172;SDS011;56280;49.662;8.408;2023-03-03T17:09:22;45.97;;;38.93;;
69172;SDS011;56280;49.662;8.408;2023-03-03T17:31:12;40.97;;;34.80;;
69172;SDS011;56280;49.662;8.408;2023-03-03T17:39:06;36.97;;;32.90;;
69172;SDS011;56280;49.662;8.408;2023-03-03T17:47:33;33.85;;;30.23;;
69172;SDS011;56280;49.662;8.408;2023-03-03T17:56:02;31.85;;;28.42;;
69172;SDS011;56280;49.662;8.408;2023-03-03T18:01:39;29.45;;;26.42;;
69172;SDS011;56280;49.662;8.408;2023-03-03T18:21:26;28.63;;;25.77;;
69172;SDS011;56280;49.662;8.408;2023-03-03T18:26:49;27.25;;;24.33;;
69172;SDS011;56280;49.662;8.408;2023-03-03T18:34:38;28.47;;;25.67;;
69172;SDS011;56280;49.662;8.408;2023-03-03T18:37:09;27.67;;;24.17;;
69172;SDS011;56280;49.662;8.408;2023-03-03T18:42:31;28.70;;;25.90;;
69172;SDS011;56280;49.662;8.408;2023-03-03T18:50:32;27.00;;;24.27;;
69172;SDS011;56280;49.662;8.408;2023-03-03T18:53:14;26.58;;;23.90;;
69172;SDS011;56280;49.662;8.408;2023-03-03T18:55:53;29.13;;;26.37;;
69172;SDS011;56280;49.662;8.408;2023-03-03T18:58:31;26.42;;;23.83;;
69172;SDS011;56280;49.662;8.408;2023-03-03T19:01:11;28.85;;;26.05;;
69172;SDS011;56280;49.662;8.408;2023-03-03T19:04:02;28.73;;;25.75;;
69172;SDS011;56280;49.662;8.408;2023-03-03T19:09:08;27.38;;;24.48;;
69172;SDS011;56280;49.662;8.408;2023-03-03T19:16:41;27.45;;;24.75;;
69172;SDS011;56280;49.662;8.408;2023-03-03T19:19:16;28.53;;;25.60;;
69172;SDS011;56280;49.662;8.408;2023-03-03T19:21:44;26.13;;;22.77;;
69172;SDS011;56280;49.662;8.408;2023-03-03T19:26:51;25.42;;;22.83;;
69172;SDS011;56280;49.662;8.408;2023-03-03T19:52:12;47.47;;;35.88;;
69172;SDS011;56280;49.662;8.408;2023-03-03T19:55:05;50.72;;;35.83;;
69172;SDS011;56280;49.662;8.408;2023-03-03T20:06:29;53.58;;;41.30;;
69172;SDS011;56280;49.662;8.408;2023-03-03T20:15:20;61.53;;;43.00;;
69172;SDS011;56280;49.662;8.408;2023-03-03T20:17:43;60.33;;;43.67;;
69172;SDS011;56280;49.662;8.408;2023-03-03T20:20:31;59.08;;;41.80;;
69172;SDS011;56280;49.662;8.408;2023-03-03T20:26:00;61.17;;;42.87;;
69172;SDS011;56280;49.662;8.408;2023-03-03T20:28:51;63.20;;;43.20;;
69172;SDS011;56280;49.662;8.408;2023-03-03T20:42:25;63.38;;;42.33;;
69172;SDS011;56280;49.662;8.408;2023-03-03T20:48:34;66.60;;;42.15;;